sensor_id;sensor_type;location;lat;lon;timestamp;temperature;humidity
7196;DHT22;3639;51.308;5.624;2023-05-23T00:01:41;15.30;99.90
7196;DHT22;3639;51.308;5.624;2023-05-23T00:04:07;15.30;99.90
7196;DHT22;3639;51.308;5.624;2023-05-23T00:06:34;15.30;99.90
7196;DHT22;3639;51.308;5.624;2023-05-23T00:09:01;15.30;99.90
7196;DHT22;3639;51.308;5.624;2023-05-23T00:11:27;15.30;99.90
7196;DHT22;3639;51.308;5.624;2023-05-23T00:13:53;15.30;99.90
7196;DHT22;3639;51.308;5.624;2023-05-23T00:16:20;15.30;99.90
7196;DHT22;3639;51.308;5.624;2023-05-23T00:18:47;15.30;99.90
7196;DHT22;3639;51.308;5.624;2023-05-23T00:21:14;15.20;99.90
7196;DHT22;3639;51.308;5.624;2023-05-23T00:23:41;15.10;99.90
7196;DHT22;3639;51.308;5.624;2023-05-23T00:26:08;15.10;99.90
7196;DHT22;3639;51.308;5.624;2023-05-23T00:28:33;15.10;99.90
7196;DHT22;3639;51.308;5.624;2023-05-23T00:30:59;15.10;99.90
7196;DHT22;3639;51.308;5.624;2023-05-23T00:33:24;15.10;99.90
7196;DHT22;3639;51.308;5.624;2023-05-23T00:35:50;15.20;99.90
7196;DHT22;3639;51.308;5.624;2023-05-23T00:38:16;15.20;99.90
7196;DHT22;3639;51.308;5.624;2023-05-23T00:40:42;15.30;99.90
7196;DHT22;3639;51.308;5.624;2023-05-23T00:43:07;15.30;99.90
7196;DHT22;3639;51.308;5.624;2023-05-23T00:45:33;15.30;99.90
7196;DHT22;3639;51.308;5.624;2023-05-23T00:47:59;15.30;99.90
7196;DHT22;3639;51.308;5.624;2023-05-23T00:50:26;15.40;99.90
7196;DHT22;3639;51.308;5.624;2023-05-23T00:52:56;15.40;99.90
7196;DHT22;3639;51.308;5.624;2023-05-23T00:55:25;15.40;99.90
7196;DHT22;3639;51.308;5.624;2023-05-23T00:57:52;15.40;99.90
7196;DHT22;3639;51.308;5.624;2023-05-23T01:00:20;15.40;99.90
7196;DHT22;3639;51.308;5.624;2023-05-23T01:02:47;15.40;99.90
7196;DHT22;3639;51.308;5.624;2023-05-23T01:05:16;15.40;99.90
7196;DHT22;3639;51.308;5.624;2023-05-23T01:07:43;15.40;99.90
7196;DHT22;3639;51.308;5.624;2023-05-23T01:10:09;15.30;99.90
7196;DHT22;3639;51.308;5.624;2023-05-23T01:15:21;15.30;99.90
7196;DHT22;3639;51.308;5.624;2023-05-23T01:20:37;15.30;99.90
7196;DHT22;3639;51.308;5.624;2023-05-23T01:28:46;15.20;99.90
7196;DHT22;3639;51.308;5.624;2023-05-23T01:31:15;15.20;99.90
7196;DHT22;3639;51.308;5.624;2023-05-23T01:33:42;15.20;99.90
7196;DHT22;3639;51.308;5.624;2023-05-23T01:36:12;15.20;99.90
7196;DHT22;3639;51.308;5.624;2023-05-23T01:38:38;15.30;99.90
7196;DHT22;3639;51.308;5.624;2023-05-23T01:41:04;15.30;99.90
7196;DHT22;3639;51.308;5.624;2023-05-23T01:43:29;15.30;99.90
7196;DHT22;3639;51.308;5.624;2023-05-23T01:45:55;15.30;99.90
7196;DHT22;3639;51.308;5.624;2023-05-23T01:48:22;15.30;99.90
7196;DHT22;3639;51.308;5.624;2023-05-23T01:50:48;15.30;99.90
7196;DHT22;3639;51.308;5.624;2023-05-23T01:53:17;15.30;99.90
7196;DHT22;3639;51.308;5.624;2023-05-23T01:55:43;15.30;99.90
7196;DHT22;3639;51.308;5.624;2023-05-23T01:58:10;15.30;99.90
7196;DHT22;3639;51.308;5.624;2023-05-23T02:00:35;15.30;99.90
7196;DHT22;3639;51.308;5.624;2023-05-23T02:03:01;15.30;99.90
7196;DHT22;3639;51.308;5.624;2023-05-23T02:05:27;15.30;99.90
7196;DHT22;3639;51.308;5.624;2023-05-23T02:07:52;15.30;99.90
7196;DHT22;3639;51.308;5.624;2023-05-23T02:10:18;15.30;99.90
7196;DHT22;3639;51.308;5.624;2023-05-23T02:12:44;15.30;99.90
7196;DHT22;3639;51.308;5.624;2023-05-23T02:15:10;15.20;99.90
7196;DHT22;3639;51.308;5.624;2023-05-23T02:17:35;15.20;99.90
7196;DHT22;3639;51.308;5.624;2023-05-23T02:20:03;15.20;99.90
7196;DHT22;3639;51.308;5.624;2023-05-23T02:22:29;15.20;99.90
7196;DHT22;3639;51.308;5.624;2023-05-23T02:24:54;15.20;99.90
7196;DHT22;3639;51.308;5.624;2023-05-23T02:27:20;15.10;99.90
7196;DHT22;3639;51.308;5.624;2023-05-23T02:29:45;15.00;99.90
7196;DHT22;3639;51.308;5.624;2023-05-23T02:32:11;15.00;99.90
7196;DHT22;3639;51.308;5.624;2023-05-23T02:34:37;15.00;99.90
7196;DHT22;3639;51.308;5.624;2023-05-23T02:37:02;15.00;99.90
7196;DHT22;3639;51.308;5.624;2023-05-23T02:39:28;15.00;99.90
7196;DHT22;3639;51.308;5.624;2023-05-23T02:41:53;14.90;99.90
7196;DHT22;3639;51.308;5.624;2023-05-23T02:44:19;14.90;99.90
7196;DHT22;3639;51.308;5.624;2023-05-23T02:46:45;14.80;99.90
7196;DHT22;3639;51.308;5.624;2023-05-23T02:49:10;14.80;99.90
7196;DHT22;3639;51.308;5.624;2023-05-23T02:51:36;14.90;99.90
7196;DHT22;3639;51.308;5.624;2023-05-23T02:54:02;14.90;99.90
7196;DHT22;3639;51.308;5.624;2023-05-23T02:56:27;14.90;99.90
7196;DHT22;3639;51.308;5.624;2023-05-23T02:58:53;14.90;99.90
7196;DHT22;3639;51.308;5.624;2023-05-23T03:01:19;14.90;99.90
7196;DHT22;3639;51.308;5.624;2023-05-23T03:03:45;14.80;99.90
7196;DHT22;3639;51.308;5.624;2023-05-23T03:06:10;14.80;99.90
7196;DHT22;3639;51.308;5.624;2023-05-23T03:08:42;14.80;99.90
7196;DHT22;3639;51.308;5.624;2023-05-23T03:11:08;14.80;99.90
7196;DHT22;3639;51.308;5.624;2023-05-23T03:13:34;14.80;99.90
7196;DHT22;3639;51.308;5.624;2023-05-23T03:16:00;14.70;99.90
7196;DHT22;3639;51.308;5.624;2023-05-23T03:18:26;14.70;99.90
7196;DHT22;3639;51.308;5.624;2023-05-23T03:20:51;14.70;99.90
7196;DHT22;3639;51.308;5.624;2023-05-23T03:23:17;14.70;99.90
7196;DHT22;3639;51.308;5.624;2023-05-23T03:25:43;14.70;99.90
7196;DHT22;3639;51.308;5.624;2023-05-23T03:28:08;14.70;99.90
7196;DHT22;3639;51.308;5.624;2023-05-23T03:30:34;14.70;99.90
7196;DHT22;3639;51.308;5.624;2023-05-23T03:32:59;14.70;99.90
7196;DHT22;3639;51.308;5.624;2023-05-23T03:35:26;14.70;99.90
7196;DHT22;3639;51.308;5.624;2023-05-23T03:37:51;14.60;99.90
7196;DHT22;3639;51.308;5.624;2023-05-23T03:40:17;14.70;99.90
7196;DHT22;3639;51.308;5.624;2023-05-23T03:42:42;14.70;99.90
7196;DHT22;3639;51.308;5.624;2023-05-23T03:45:08;14.70;99.90
7196;DHT22;3639;51.308;5.624;2023-05-23T03:47:34;14.70;99.90
7196;DHT22;3639;51.308;5.624;2023-05-23T03:49:59;14.70;99.90
7196;DHT22;3639;51.308;5.624;2023-05-23T03:52:25;14.70;99.90
7196;DHT22;3639;51.308;5.624;2023-05-23T03:54:50;14.70;99.90
7196;DHT22;3639;51.308;5.624;2023-05-23T03:57:16;14.70;99.90
7196;DHT22;3639;51.308;5.624;2023-05-23T03:59:42;14.70;99.90
7196;DHT22;3639;51.308;5.624;2023-05-23T04:02:07;14.70;99.90
7196;DHT22;3639;51.308;5.624;2023-05-23T04:04:33;14.70;99.90
7196;DHT22;3639;51.308;5.624;2023-05-23T04:06:59;14.60;99.90
7196;DHT22;3639;51.308;5.624;2023-05-23T04:09:26;14.60;99.90
7196;DHT22;3639;51.308;5.624;2023-05-23T04:11:51;14.70;99.90
7196;DHT22;3639;51.308;5.624;2023-05-23T04:14:17;14.60;99.90
7196;DHT22;3639;51.308;5.624;2023-05-23T04:16:44;14.60;99.90
7196;DHT22;3639;51.308;5.624;2023-05-23T04:19:10;14.70;99.90
7196;DHT22;3639;51.308;5.624;2023-05-23T04:21:36;14.60;99.90
7196;DHT22;3639;51.308;5.624;2023-05-23T04:24:02;14.50;99.90
7196;DHT22;3639;51.308;5.624;2023-05-23T04:26:28;14.60;99.90
7196;DHT22;3639;51.308;5.624;2023-05-23T04:28:54;14.50;99.90
7196;DHT22;3639;51.308;5.624;2023-05-23T04:31:20;14.60;99.90
7196;DHT22;3639;51.308;5.624;2023-05-23T04:33:47;14.50;99.90
7196;DHT22;3639;51.308;5.624;2023-05-23T04:36:12;14.60;99.90
7196;DHT22;3639;51.308;5.624;2023-05-23T04:38:38;14.60;99.90
7196;DHT22;3639;51.308;5.624;2023-05-23T04:41:06;14.60;99.90
7196;DHT22;3639;51.308;5.624;2023-05-23T04:43:32;14.60;99.90
7196;DHT22;3639;51.308;5.624;2023-05-23T04:46:09;14.60;99.90
7196;DHT22;3639;51.308;5.624;2023-05-23T04:48:35;14.60;99.90
7196;DHT22;3639;51.308;5.624;2023-05-23T04:51:02;14.60;99.90
7196;DHT22;3639;51.308;5.624;2023-05-23T04:53:30;14.60;99.90
7196;DHT22;3639;51.308;5.624;2023-05-23T04:55:56;14.70;99.90
7196;DHT22;3639;51.308;5.624;2023-05-23T04:58:21;14.70;99.90
7196;DHT22;3639;51.308;5.624;2023-05-23T05:00:47;14.70;99.90
7196;DHT22;3639;51.308;5.624;2023-05-23T05:03:12;14.70;99.90
7196;DHT22;3639;51.308;5.624;2023-05-23T05:05:38;14.70;99.90
7196;DHT22;3639;51.308;5.624;2023-05-23T05:08:04;14.80;99.90
7196;DHT22;3639;51.308;5.624;2023-05-23T05:10:30;14.70;99.90
7196;DHT22;3639;51.308;5.624;2023-05-23T05:12:55;14.80;99.90
7196;DHT22;3639;51.308;5.624;2023-05-23T05:15:21;14.70;99.90
7196;DHT22;3639;51.308;5.624;2023-05-23T05:17:46;14.60;99.90
7196;DHT22;3639;51.308;5.624;2023-05-23T05:20:12;14.60;99.90
7196;DHT22;3639;51.308;5.624;2023-05-23T05:22:38;14.60;99.90
7196;DHT22;3639;51.308;5.624;2023-05-23T05:25:09;14.60;99.90
7196;DHT22;3639;51.308;5.624;2023-05-23T05:27:34;14.60;99.90
7196;DHT22;3639;51.308;5.624;2023-05-23T05:30:06;14.70;99.90
7196;DHT22;3639;51.308;5.624;2023-05-23T05:32:32;14.70;99.90
7196;DHT22;3639;51.308;5.624;2023-05-23T05:34:58;14.80;99.90
7196;DHT22;3639;51.308;5.624;2023-05-23T05:37:24;14.80;99.90
7196;DHT22;3639;51.308;5.624;2023-05-23T05:39:50;14.80;99.90
7196;DHT22;3639;51.308;5.624;2023-05-23T05:42:15;14.80;99.90
7196;DHT22;3639;51.308;5.624;2023-05-23T05:44:41;14.80;99.90
7196;DHT22;3639;51.308;5.624;2023-05-23T05:47:06;14.80;99.90
7196;DHT22;3639;51.308;5.624;2023-05-23T05:49:32;14.80;99.90
7196;DHT22;3639;51.308;5.624;2023-05-23T05:51:58;14.90;99.90
7196;DHT22;3639;51.308;5.624;2023-05-23T05:54:23;14.90;99.90
7196;DHT22;3639;51.308;5.624;2023-05-23T05:56:49;14.90;99.90
7196;DHT22;3639;51.308;5.624;2023-05-23T05:59:14;14.90;99.90
7196;DHT22;3639;51.308;5.624;2023-05-23T06:01:40;14.90;99.90
7196;DHT22;3639;51.308;5.624;2023-05-23T06:04:05;14.90;99.90
7196;DHT22;3639;51.308;5.624;2023-05-23T06:06:31;14.90;99.90
7196;DHT22;3639;51.308;5.624;2023-05-23T06:08:58;14.80;99.90
7196;DHT22;3639;51.308;5.624;2023-05-23T06:11:23;14.70;99.90
7196;DHT22;3639;51.308;5.624;2023-05-23T06:13:49;14.70;99.90
7196;DHT22;3639;51.308;5.624;2023-05-23T06:16:15;14.60;99.90
7196;DHT22;3639;51.308;5.624;2023-05-23T06:18:40;14.60;99.90
7196;DHT22;3639;51.308;5.624;2023-05-23T06:21:06;14.60;99.90
7196;DHT22;3639;51.308;5.624;2023-05-23T06:23:31;14.60;99.90
7196;DHT22;3639;51.308;5.624;2023-05-23T06:25:57;14.50;99.90
7196;DHT22;3639;51.308;5.624;2023-05-23T06:28:24;14.50;99.90
7196;DHT22;3639;51.308;5.624;2023-05-23T06:30:49;14.50;99.90
7196;DHT22;3639;51.308;5.624;2023-05-23T06:33:15;14.50;99.90
7196;DHT22;3639;51.308;5.624;2023-05-23T06:35:41;14.40;99.90
7196;DHT22;3639;51.308;5.624;2023-05-23T06:38:07;14.40;99.90
7196;DHT22;3639;51.308;5.624;2023-05-23T06:40:32;14.30;99.90
7196;DHT22;3639;51.308;5.624;2023-05-23T06:42:58;14.30;99.90
7196;DHT22;3639;51.308;5.624;2023-05-23T06:45:24;14.30;99.90
7196;DHT22;3639;51.308;5.624;2023-05-23T06:47:49;14.30;99.90
7196;DHT22;3639;51.308;5.624;2023-05-23T06:50:16;14.30;99.90
7196;DHT22;3639;51.308;5.624;2023-05-23T06:52:44;14.20;99.90
7196;DHT22;3639;51.308;5.624;2023-05-23T06:55:11;14.10;99.90
7196;DHT22;3639;51.308;5.624;2023-05-23T06:57:42;14.00;99.90
7196;DHT22;3639;51.308;5.624;2023-05-23T07:00:08;14.10;99.90
7196;DHT22;3639;51.308;5.624;2023-05-23T07:02:34;14.00;99.90
7196;DHT22;3639;51.308;5.624;2023-05-23T07:05:00;14.00;99.90
7196;DHT22;3639;51.308;5.624;2023-05-23T07:07:25;14.10;99.90
7196;DHT22;3639;51.308;5.624;2023-05-23T07:09:51;14.00;99.90
7196;DHT22;3639;51.308;5.624;2023-05-23T07:12:16;14.00;99.90
7196;DHT22;3639;51.308;5.624;2023-05-23T07:14:42;14.10;99.90
7196;DHT22;3639;51.308;5.624;2023-05-23T07:17:07;14.10;99.90
7196;DHT22;3639;51.308;5.624;2023-05-23T07:19:33;14.10;99.90
7196;DHT22;3639;51.308;5.624;2023-05-23T07:21:58;14.10;99.90
7196;DHT22;3639;51.308;5.624;2023-05-23T07:24:24;14.00;99.90
7196;DHT22;3639;51.308;5.624;2023-05-23T07:26:50;14.00;99.90
7196;DHT22;3639;51.308;5.624;2023-05-23T07:29:15;14.10;99.90
7196;DHT22;3639;51.308;5.624;2023-05-23T07:31:41;14.10;99.90
7196;DHT22;3639;51.308;5.624;2023-05-23T07:34:06;14.10;99.90
7196;DHT22;3639;51.308;5.624;2023-05-23T07:36:32;14.10;99.90
7196;DHT22;3639;51.308;5.624;2023-05-23T07:39:00;13.90;99.90
7196;DHT22;3639;51.308;5.624;2023-05-23T07:41:25;13.80;99.90
7196;DHT22;3639;51.308;5.624;2023-05-23T07:43:51;13.70;99.90
7196;DHT22;3639;51.308;5.624;2023-05-23T07:46:16;13.70;99.90
7196;DHT22;3639;51.308;5.624;2023-05-23T07:48:42;13.70;99.90
7196;DHT22;3639;51.308;5.624;2023-05-23T07:51:07;13.60;99.90
7196;DHT22;3639;51.308;5.624;2023-05-23T07:53:33;13.60;99.90
7196;DHT22;3639;51.308;5.624;2023-05-23T07:56:00;13.60;99.90
7196;DHT22;3639;51.308;5.624;2023-05-23T07:58:25;13.70;99.90
7196;DHT22;3639;51.308;5.624;2023-05-23T08:00:51;13.70;99.90
7196;DHT22;3639;51.308;5.624;2023-05-23T08:03:16;13.70;99.90
7196;DHT22;3639;51.308;5.624;2023-05-23T08:05:43;13.80;99.90
7196;DHT22;3639;51.308;5.624;2023-05-23T08:08:08;13.90;99.90
7196;DHT22;3639;51.308;5.624;2023-05-23T08:10:34;14.10;99.90
7196;DHT22;3639;51.308;5.624;2023-05-23T08:13:00;14.20;99.90
7196;DHT22;3639;51.308;5.624;2023-05-23T08:15:31;14.30;99.90
7196;DHT22;3639;51.308;5.624;2023-05-23T08:17:57;14.50;99.90
7196;DHT22;3639;51.308;5.624;2023-05-23T08:20:25;14.70;99.90
7196;DHT22;3639;51.308;5.624;2023-05-23T08:22:57;14.90;99.90
7196;DHT22;3639;51.308;5.624;2023-05-23T08:25:23;15.10;99.90
7196;DHT22;3639;51.308;5.624;2023-05-23T08:27:49;15.20;99.90
7196;DHT22;3639;51.308;5.624;2023-05-23T08:30:15;15.30;99.90
7196;DHT22;3639;51.308;5.624;2023-05-23T08:32:41;15.40;99.90
7196;DHT22;3639;51.308;5.624;2023-05-23T08:35:07;15.60;99.90
7196;DHT22;3639;51.308;5.624;2023-05-23T08:37:32;15.70;99.90
7196;DHT22;3639;51.308;5.624;2023-05-23T08:39:58;15.80;99.90
7196;DHT22;3639;51.308;5.624;2023-05-23T08:42:24;15.90;99.90
7196;DHT22;3639;51.308;5.624;2023-05-23T08:44:50;15.90;99.90
7196;DHT22;3639;51.308;5.624;2023-05-23T08:47:16;15.90;99.90
7196;DHT22;3639;51.308;5.624;2023-05-23T08:49:42;15.90;99.90
7196;DHT22;3639;51.308;5.624;2023-05-23T08:52:11;16.00;99.90
7196;DHT22;3639;51.308;5.624;2023-05-23T08:54:38;16.10;99.90
7196;DHT22;3639;51.308;5.624;2023-05-23T08:57:05;16.10;99.90
7196;DHT22;3639;51.308;5.624;2023-05-23T08:59:32;16.00;99.90
7196;DHT22;3639;51.308;5.624;2023-05-23T09:01:59;15.90;99.90
7196;DHT22;3639;51.308;5.624;2023-05-23T09:04:26;15.70;99.90
7196;DHT22;3639;51.308;5.624;2023-05-23T09:06:54;15.60;99.90
7196;DHT22;3639;51.308;5.624;2023-05-23T09:09:21;15.40;99.90
7196;DHT22;3639;51.308;5.624;2023-05-23T09:11:47;15.30;99.90
7196;DHT22;3639;51.308;5.624;2023-05-23T09:14:12;15.30;99.90
7196;DHT22;3639;51.308;5.624;2023-05-23T09:16:38;15.30;99.90
7196;DHT22;3639;51.308;5.624;2023-05-23T09:19:14;15.50;99.90
7196;DHT22;3639;51.308;5.624;2023-05-23T09:21:45;15.40;99.90
7196;DHT22;3639;51.308;5.624;2023-05-23T09:24:12;15.60;99.90
7196;DHT22;3639;51.308;5.624;2023-05-23T09:26:37;15.70;99.90
7196;DHT22;3639;51.308;5.624;2023-05-23T09:29:06;15.80;99.90
7196;DHT22;3639;51.308;5.624;2023-05-23T09:31:32;15.80;99.90
7196;DHT22;3639;51.308;5.624;2023-05-23T09:33:58;15.70;99.90
7196;DHT22;3639;51.308;5.624;2023-05-23T09:36:28;15.50;99.90
7196;DHT22;3639;51.308;5.624;2023-05-23T09:38:54;15.50;99.90
7196;DHT22;3639;51.308;5.624;2023-05-23T09:41:20;15.60;99.90
7196;DHT22;3639;51.308;5.624;2023-05-23T09:43:52;15.70;99.90
7196;DHT22;3639;51.308;5.624;2023-05-23T09:46:19;15.60;99.90
7196;DHT22;3639;51.308;5.624;2023-05-23T09:48:46;15.50;99.90
7196;DHT22;3639;51.308;5.624;2023-05-23T09:51:12;15.60;99.90
7196;DHT22;3639;51.308;5.624;2023-05-23T09:53:38;15.50;99.90
7196;DHT22;3639;51.308;5.624;2023-05-23T09:56:03;15.60;99.90
7196;DHT22;3639;51.308;5.624;2023-05-23T09:58:32;15.80;99.90
7196;DHT22;3639;51.308;5.624;2023-05-23T10:00:59;16.20;99.90
7196;DHT22;3639;51.308;5.624;2023-05-23T10:03:39;16.30;99.90
7196;DHT22;3639;51.308;5.624;2023-05-23T10:06:25;16.30;99.90
7196;DHT22;3639;51.308;5.624;2023-05-23T10:09:05;16.30;99.90
7196;DHT22;3639;51.308;5.624;2023-05-23T10:14:09;16.60;99.90
7196;DHT22;3639;51.308;5.624;2023-05-23T10:16:54;16.70;99.90
7196;DHT22;3639;51.308;5.624;2023-05-23T10:22:17;16.60;99.90
7196;DHT22;3639;51.308;5.624;2023-05-23T10:24:47;16.60;99.90
7196;DHT22;3639;51.308;5.624;2023-05-23T10:27:13;16.60;99.90
7196;DHT22;3639;51.308;5.624;2023-05-23T10:29:39;16.40;99.90
7196;DHT22;3639;51.308;5.624;2023-05-23T10:32:05;16.40;99.90
7196;DHT22;3639;51.308;5.624;2023-05-23T10:37:39;17.10;99.90
7196;DHT22;3639;51.308;5.624;2023-05-23T10:46:07;16.90;99.90
7196;DHT22;3639;51.308;5.624;2023-05-23T10:48:40;16.80;99.90
7196;DHT22;3639;51.308;5.624;2023-05-23T10:51:10;16.70;99.90
7196;DHT22;3639;51.308;5.624;2023-05-23T10:53:38;16.70;99.90
7196;DHT22;3639;51.308;5.624;2023-05-23T10:56:08;16.70;99.90
7196;DHT22;3639;51.308;5.624;2023-05-23T10:58:36;16.80;99.90
7196;DHT22;3639;51.308;5.624;2023-05-23T11:01:08;17.00;99.90
7196;DHT22;3639;51.308;5.624;2023-05-23T11:03:52;17.00;99.90
7196;DHT22;3639;51.308;5.624;2023-05-23T11:06:39;17.20;99.90
7196;DHT22;3639;51.308;5.624;2023-05-23T11:09:16;17.30;99.90
7196;DHT22;3639;51.308;5.624;2023-05-23T11:11:59;17.30;99.90
7196;DHT22;3639;51.308;5.624;2023-05-23T11:16:56;17.30;99.90
7196;DHT22;3639;51.308;5.624;2023-05-23T11:19:23;17.50;99.90
7196;DHT22;3639;51.308;5.624;2023-05-23T11:21:53;17.70;99.90
7196;DHT22;3639;51.308;5.624;2023-05-23T11:24:19;17.90;99.80
7196;DHT22;3639;51.308;5.624;2023-05-23T11:26:58;17.90;98.80
7196;DHT22;3639;51.308;5.624;2023-05-23T11:29:28;17.70;98.60
7196;DHT22;3639;51.308;5.624;2023-05-23T11:31:55;17.50;99.80
7196;DHT22;3639;51.308;5.624;2023-05-23T11:34:22;17.60;99.10
7196;DHT22;3639;51.308;5.624;2023-05-23T11:36:53;17.90;97.90
7196;DHT22;3639;51.308;5.624;2023-05-23T11:39:18;17.90;98.00
7196;DHT22;3639;51.308;5.624;2023-05-23T11:41:57;18.00;97.60
7196;DHT22;3639;51.308;5.624;2023-05-23T11:44:23;17.90;97.40
7196;DHT22;3639;51.308;5.624;2023-05-23T11:47:05;18.00;97.60
7196;DHT22;3639;51.308;5.624;2023-05-23T11:49:34;17.90;98.00
7196;DHT22;3639;51.308;5.624;2023-05-23T11:52:01;17.80;97.50
7196;DHT22;3639;51.308;5.624;2023-05-23T11:54:27;17.80;97.80
7196;DHT22;3639;51.308;5.624;2023-05-23T11:56:54;17.60;97.90
7196;DHT22;3639;51.308;5.624;2023-05-23T11:59:24;17.60;96.80
7196;DHT22;3639;51.308;5.624;2023-05-23T12:01:54;17.60;96.50
7196;DHT22;3639;51.308;5.624;2023-05-23T12:04:19;17.50;97.30
7196;DHT22;3639;51.308;5.624;2023-05-23T12:06:46;17.70;97.90
7196;DHT22;3639;51.308;5.624;2023-05-23T12:09:13;17.70;97.70
7196;DHT22;3639;51.308;5.624;2023-05-23T12:11:40;17.60;97.60
7196;DHT22;3639;51.308;5.624;2023-05-23T12:14:14;17.80;98.40
7196;DHT22;3639;51.308;5.624;2023-05-23T12:16:42;18.00;98.10
7196;DHT22;3639;51.308;5.624;2023-05-23T12:19:08;18.50;97.90
7196;DHT22;3639;51.308;5.624;2023-05-23T12:21:45;18.80;97.00
7196;DHT22;3639;51.308;5.624;2023-05-23T12:24:22;19.00;96.70
7196;DHT22;3639;51.308;5.624;2023-05-23T12:26:54;19.10;95.80
7196;DHT22;3639;51.308;5.624;2023-05-23T12:29:33;19.30;95.20
7196;DHT22;3639;51.308;5.624;2023-05-23T12:32:00;19.20;95.90
7196;DHT22;3639;51.308;5.624;2023-05-23T12:34:26;19.40;95.10
7196;DHT22;3639;51.308;5.624;2023-05-23T12:36:56;19.70;94.70
7196;DHT22;3639;51.308;5.624;2023-05-23T12:39:26;19.30;94.40
7196;DHT22;3639;51.308;5.624;2023-05-23T12:41:52;19.00;95.40
7196;DHT22;3639;51.308;5.624;2023-05-23T12:44:20;18.70;94.60
7196;DHT22;3639;51.308;5.624;2023-05-23T12:46:46;18.50;94.80
7196;DHT22;3639;51.308;5.624;2023-05-23T12:49:12;18.40;95.30
7196;DHT22;3639;51.308;5.624;2023-05-23T12:51:38;18.30;95.60
7196;DHT22;3639;51.308;5.624;2023-05-23T12:54:04;18.40;95.00
7196;DHT22;3639;51.308;5.624;2023-05-23T12:56:29;18.30;95.20
7196;DHT22;3639;51.308;5.624;2023-05-23T12:58:55;18.40;95.10
7196;DHT22;3639;51.308;5.624;2023-05-23T13:01:21;18.60;94.90
7196;DHT22;3639;51.308;5.624;2023-05-23T13:03:47;18.80;94.80
7196;DHT22;3639;51.308;5.624;2023-05-23T13:06:13;18.80;94.00
7196;DHT22;3639;51.308;5.624;2023-05-23T13:08:38;18.50;94.30
7196;DHT22;3639;51.308;5.624;2023-05-23T13:11:04;18.30;95.60
7196;DHT22;3639;51.308;5.624;2023-05-23T13:13:30;18.30;95.40
7196;DHT22;3639;51.308;5.624;2023-05-23T13:15:57;18.40;95.80
7196;DHT22;3639;51.308;5.624;2023-05-23T13:18:22;18.20;95.10
7196;DHT22;3639;51.308;5.624;2023-05-23T13:20:48;18.10;94.50
7196;DHT22;3639;51.308;5.624;2023-05-23T13:23:14;18.30;94.60
7196;DHT22;3639;51.308;5.624;2023-05-23T13:25:39;18.40;94.60
7196;DHT22;3639;51.308;5.624;2023-05-23T13:28:05;18.30;95.60
7196;DHT22;3639;51.308;5.624;2023-05-23T13:30:31;18.30;95.80
7196;DHT22;3639;51.308;5.624;2023-05-23T13:32:56;18.20;94.40
7196;DHT22;3639;51.308;5.624;2023-05-23T13:35:22;18.20;94.70
7196;DHT22;3639;51.308;5.624;2023-05-23T13:37:48;18.10;95.10
7196;DHT22;3639;51.308;5.624;2023-05-23T13:40:18;18.20;94.70
7196;DHT22;3639;51.308;5.624;2023-05-23T13:42:48;18.20;94.10
7196;DHT22;3639;51.308;5.624;2023-05-23T13:45:15;18.10;93.70
7196;DHT22;3639;51.308;5.624;2023-05-23T13:47:42;18.10;94.40
7196;DHT22;3639;51.308;5.624;2023-05-23T13:50:08;18.20;93.80
7196;DHT22;3639;51.308;5.624;2023-05-23T13:52:34;18.20;94.70
7196;DHT22;3639;51.308;5.624;2023-05-23T13:55:00;18.00;93.10
7196;DHT22;3639;51.308;5.624;2023-05-23T13:57:27;18.00;94.00
7196;DHT22;3639;51.308;5.624;2023-05-23T13:59:52;17.90;94.10
7196;DHT22;3639;51.308;5.624;2023-05-23T14:02:18;17.70;93.30
7196;DHT22;3639;51.308;5.624;2023-05-23T14:04:43;17.80;93.40
7196;DHT22;3639;51.308;5.624;2023-05-23T14:07:09;18.00;93.60
7196;DHT22;3639;51.308;5.624;2023-05-23T14:09:35;18.00;93.10
7196;DHT22;3639;51.308;5.624;2023-05-23T14:12:00;18.00;91.80
7196;DHT22;3639;51.308;5.624;2023-05-23T14:14:26;17.90;92.00
7196;DHT22;3639;51.308;5.624;2023-05-23T14:16:52;18.00;92.40
7196;DHT22;3639;51.308;5.624;2023-05-23T14:19:18;18.00;93.40
7196;DHT22;3639;51.308;5.624;2023-05-23T14:21:43;18.10;93.70
7196;DHT22;3639;51.308;5.624;2023-05-23T14:24:09;18.30;93.20
7196;DHT22;3639;51.308;5.624;2023-05-23T14:26:35;18.20;93.20
7196;DHT22;3639;51.308;5.624;2023-05-23T14:29:01;17.90;93.00
7196;DHT22;3639;51.308;5.624;2023-05-23T14:31:26;17.80;93.00
7196;DHT22;3639;51.308;5.624;2023-05-23T14:33:52;17.80;92.60
7196;DHT22;3639;51.308;5.624;2023-05-23T14:36:17;17.90;92.30
7196;DHT22;3639;51.308;5.624;2023-05-23T14:38:43;18.00;92.40
7196;DHT22;3639;51.308;5.624;2023-05-23T14:41:12;18.30;92.70
7196;DHT22;3639;51.308;5.624;2023-05-23T14:43:38;18.40;92.10
7196;DHT22;3639;51.308;5.624;2023-05-23T14:46:04;18.40;91.90
7196;DHT22;3639;51.308;5.624;2023-05-23T14:48:30;18.40;91.50
7196;DHT22;3639;51.308;5.624;2023-05-23T14:50:56;18.40;91.20
7196;DHT22;3639;51.308;5.624;2023-05-23T14:53:29;18.20;91.30
7196;DHT22;3639;51.308;5.624;2023-05-23T14:55:55;18.10;91.50
7196;DHT22;3639;51.308;5.624;2023-05-23T14:58:21;18.00;91.00
7196;DHT22;3639;51.308;5.624;2023-05-23T15:00:47;18.00;90.60
7196;DHT22;3639;51.308;5.624;2023-05-23T15:03:13;18.00;91.30
7196;DHT22;3639;51.308;5.624;2023-05-23T15:05:39;17.90;91.60
7196;DHT22;3639;51.308;5.624;2023-05-23T15:08:05;17.60;92.40
7196;DHT22;3639;51.308;5.624;2023-05-23T15:10:30;17.70;90.70
7196;DHT22;3639;51.308;5.624;2023-05-23T15:12:56;17.70;90.20
7196;DHT22;3639;51.308;5.624;2023-05-23T15:15:22;17.70;90.30
7196;DHT22;3639;51.308;5.624;2023-05-23T15:17:49;17.50;90.20
7196;DHT22;3639;51.308;5.624;2023-05-23T15:20:18;17.50;90.50
7196;DHT22;3639;51.308;5.624;2023-05-23T15:22:43;17.60;90.40
7196;DHT22;3639;51.308;5.624;2023-05-23T15:25:09;17.60;90.40
7196;DHT22;3639;51.308;5.624;2023-05-23T15:27:35;17.60;91.20
7196;DHT22;3639;51.308;5.624;2023-05-23T15:30:01;17.60;91.10
7196;DHT22;3639;51.308;5.624;2023-05-23T15:32:27;17.70;90.80
7196;DHT22;3639;51.308;5.624;2023-05-23T15:34:53;17.70;88.90
7196;DHT22;3639;51.308;5.624;2023-05-23T15:37:18;17.70;88.10
7196;DHT22;3639;51.308;5.624;2023-05-23T15:39:44;17.70;89.80
7196;DHT22;3639;51.308;5.624;2023-05-23T15:42:10;17.80;90.40
7196;DHT22;3639;51.308;5.624;2023-05-23T15:44:35;17.90;90.40
7196;DHT22;3639;51.308;5.624;2023-05-23T15:47:01;18.10;91.20
7196;DHT22;3639;51.308;5.624;2023-05-23T15:49:26;18.20;91.90
7196;DHT22;3639;51.308;5.624;2023-05-23T15:51:52;17.90;92.30
7196;DHT22;3639;51.308;5.624;2023-05-23T15:54:18;17.90;92.40
7196;DHT22;3639;51.308;5.624;2023-05-23T15:56:44;17.60;92.30
7196;DHT22;3639;51.308;5.624;2023-05-23T15:59:09;17.60;92.90
7196;DHT22;3639;51.308;5.624;2023-05-23T16:01:35;17.70;92.50
7196;DHT22;3639;51.308;5.624;2023-05-23T16:04:01;17.70;92.00
7196;DHT22;3639;51.308;5.624;2023-05-23T16:06:27;17.70;91.80
7196;DHT22;3639;51.308;5.624;2023-05-23T16:08:53;17.60;92.00
7196;DHT22;3639;51.308;5.624;2023-05-23T16:11:19;17.50;91.10
7196;DHT22;3639;51.308;5.624;2023-05-23T16:13:47;17.50;91.80
7196;DHT22;3639;51.308;5.624;2023-05-23T16:16:13;17.50;90.70
7196;DHT22;3639;51.308;5.624;2023-05-23T16:18:38;17.30;90.00
7196;DHT22;3639;51.308;5.624;2023-05-23T16:21:04;17.10;91.00
7196;DHT22;3639;51.308;5.624;2023-05-23T16:23:30;16.90;90.90
7196;DHT22;3639;51.308;5.624;2023-05-23T16:25:55;16.90;91.60
7196;DHT22;3639;51.308;5.624;2023-05-23T16:28:21;16.90;91.80